»·PEaware :: PAA576 KPSP-KMFR

PAA576 :: KPSP-KMFR

FLIGHT INFORMATION

Flight Status: Arrived
Operator:
PanAm
More flights by this operator :: More flights under this callsign
Pilot: Anonymous 8274 (8274)
Aircraft: BOEING 727-200
(B722)
More flights by this aircraft type
Origin: KPSP Palm Springs Intl
United States
Destination: KMFR Rogue Valley Intl-Medford
United States
More flights between these airports :: More routes between these airports
Route: +CATH1 PSP V388 PDZ J50 EHF J65 RBL J1 OED
File this flight plan on PilotEdge
Remarks: Initial westerly route to PDZ intentional
Altitude:
(Current/Filed)
32,000ft
Speed:
(Current/Filed)
470kts
Departed: 14-Sep-18 06:16 PM
Arrived: 14-Sep-18 08:09 PM
Distance/Time
Traveled:
594nm/1:52
Distance/Time
To Go:
Arrived

Flight Plot

Page will automatically refresh every two minutes.

Flight plan parsing failed; only flown route is shown


Map Options




Map Legend


Flown Route
Filed Route
Departure Airport
Arrival Airport
Navaid (VOR, NDB)
Fix

Horizontal Profiles

Position Reports

Time Latitude Longitude Heading Altitude Ground
Speed
14-Sep-18 16:56 33.823754 -116.506135 225 489ft 0kts
14-Sep-18 16:57 33.823754 -116.506135 225 489ft 0kts
14-Sep-18 16:58 33.823754 -116.506135 225 489ft 0kts
14-Sep-18 16:59 33.823754 -116.506135 225 489ft 0kts
14-Sep-18 17:00 33.823754 -116.506135 225 489ft 0kts
14-Sep-18 17:01 33.823754 -116.506135 225 489ft 0kts
14-Sep-18 17:02 33.823754 -116.506135 225 489ft 0kts
14-Sep-18 17:03 33.823754 -116.506135 225 489ft 0kts
14-Sep-18 17:04 33.823754 -116.506135 225 489ft 0kts
14-Sep-18 17:05 33.823754 -116.506135 225 489ft 0kts
14-Sep-18 17:06 33.823754 -116.506135 225 489ft 0kts
14-Sep-18 17:07 33.823754 -116.506135 225 489ft 0kts
14-Sep-18 17:08 33.823754 -116.506135 225 489ft 0kts
14-Sep-18 17:09 33.823754 -116.506135 225 489ft 0kts
14-Sep-18 17:10 33.823754 -116.506135 225 489ft 0kts
14-Sep-18 17:11 33.823754 -116.506135 225 489ft 0kts
14-Sep-18 17:12 33.823754 -116.506135 225 489ft 0kts
14-Sep-18 17:13 33.823754 -116.506135 225 489ft 0kts
14-Sep-18 17:14 33.823754 -116.506135 225 489ft 0kts
14-Sep-18 17:15 33.823754 -116.506135 225 489ft 0kts
14-Sep-18 17:16 33.823754 -116.506135 225 489ft 0kts
14-Sep-18 17:17 33.823754 -116.506135 225 489ft 0kts
14-Sep-18 17:18 33.823754 -116.506135 225 489ft 0kts
14-Sep-18 17:19 33.823754 -116.506135 225 489ft 0kts
14-Sep-18 17:20 33.823754 -116.506135 225 489ft 0kts
14-Sep-18 17:21 33.823754 -116.506135 225 489ft 0kts
14-Sep-18 17:22 33.823754 -116.506135 225 489ft 0kts
14-Sep-18 17:23 33.823754 -116.506135 225 489ft 0kts
14-Sep-18 17:24 33.823754 -116.506135 225 489ft 0kts
14-Sep-18 17:25 33.823754 -116.506135 225 489ft 0kts
14-Sep-18 17:26 33.823754 -116.506135 225 489ft 0kts
14-Sep-18 17:27 33.823754 -116.506135 225 489ft 0kts
14-Sep-18 17:28 33.823754 -116.506135 225 489ft 0kts
14-Sep-18 17:29 33.823754 -116.506135 225 489ft 0kts
14-Sep-18 17:30 33.823754 -116.506135 225 489ft 0kts
14-Sep-18 17:31 33.823754 -116.506135 225 489ft 0kts
14-Sep-18 17:32 33.823754 -116.506135 225 489ft 0kts
14-Sep-18 17:33 33.823754 -116.506135 225 488ft 0kts
14-Sep-18 17:34 33.823754 -116.506135 225 488ft 0kts
14-Sep-18 17:35 33.823754 -116.506135 225 488ft 0kts
14-Sep-18 17:36 33.823754 -116.506135 225 488ft 0kts
14-Sep-18 17:37 33.823754 -116.506135 225 488ft 0kts
14-Sep-18 17:38 33.823754 -116.506135 225 488ft 0kts
14-Sep-18 17:39 33.823754 -116.506135 225 488ft 0kts
14-Sep-18 17:40 33.823754 -116.506135 225 488ft 0kts
14-Sep-18 17:41 33.823754 -116.506135 225 488ft 0kts
14-Sep-18 17:42 33.823754 -116.506135 225 488ft 0kts
14-Sep-18 17:43 33.823754 -116.506135 225 488ft 0kts
14-Sep-18 17:44 33.823754 -116.506135 225 488ft 0kts
14-Sep-18 17:45 33.823754 -116.506135 225 488ft 0kts
14-Sep-18 17:46 33.823754 -116.506135 225 488ft 0kts
14-Sep-18 17:47 33.823754 -116.506135 225 488ft 0kts
14-Sep-18 17:48 33.823754 -116.506135 225 488ft 0kts
14-Sep-18 17:49 33.823754 -116.506135 225 488ft 0kts
14-Sep-18 17:50 33.823754 -116.506135 225 488ft 0kts
14-Sep-18 17:51 33.823754 -116.506135 225 488ft 0kts
14-Sep-18 17:52 33.823754 -116.506135 225 488ft 0kts
14-Sep-18 17:53 33.823754 -116.506135 225 488ft 0kts
14-Sep-18 17:54 33.823754 -116.506135 225 488ft 0kts
14-Sep-18 17:55 33.823754 -116.506135 225 488ft 0kts
14-Sep-18 17:56 33.823754 -116.506135 225 488ft 0kts
14-Sep-18 17:57 33.823754 -116.506135 225 488ft 0kts
14-Sep-18 17:58 33.823754 -116.506134 225 489ft 0kts
14-Sep-18 17:59 33.824136 -116.506203 110 489ft 0kts
14-Sep-18 18:00 33.824155 -116.506279 108 489ft 0kts
14-Sep-18 18:01 33.824154 -116.506279 108 489ft 0kts
14-Sep-18 18:02 33.824154 -116.506279 108 489ft 0kts
14-Sep-18 18:03 33.824154 -116.506279 108 489ft 0kts
14-Sep-18 18:04 33.824154 -116.506279 108 489ft 0kts
14-Sep-18 18:05 33.824154 -116.506279 108 489ft 0kts
14-Sep-18 18:06 33.824154 -116.506279 108 489ft 0kts
14-Sep-18 18:07 33.824154 -116.506279 108 489ft 0kts
14-Sep-18 18:08 33.824154 -116.506279 108 489ft 0kts
14-Sep-18 18:09 33.824154 -116.506279 108 489ft 0kts
14-Sep-18 18:10 33.824154 -116.506279 108 489ft 0kts
14-Sep-18 18:11 33.824154 -116.506279 108 489ft 0kts
14-Sep-18 18:12 33.824154 -116.506279 108 489ft 0kts
14-Sep-18 18:13 33.823013 -116.504531 103 488ft 10kts
14-Sep-18 18:14 33.819924 -116.501015 143 489ft 22kts
14-Sep-18 18:15 33.818520 -116.499006 85 489ft 0kts
14-Sep-18 18:16 33.818520 -116.499006 85 489ft 0kts
14-Sep-18 18:17 33.818547 -116.498561 85 489ft 6kts
14-Sep-18 18:18 33.824703 -116.503230 323 489ft 112kts
14-Sep-18 18:19 33.859036 -116.535913 321 2155ft 180kts
14-Sep-18 18:20 33.910695 -116.580327 347 3982ft 267kts
14-Sep-18 18:21 33.959069 -116.527782 99 5514ft 281kts
14-Sep-18 18:22 33.907869 -116.461624 143 8873ft 285kts
14-Sep-18 18:23 33.849428 -116.401222 109 11960ft 287kts
14-Sep-18 18:24 33.820803 -116.304453 121 13012ft 346kts
14-Sep-18 18:25 33.756806 -116.208681 159 13867ft 393kts
14-Sep-18 18:26 33.661865 -116.243043 239 16371ft 379kts
14-Sep-18 18:27 33.672463 -116.356110 318 18454ft 370kts
14-Sep-18 18:28 33.769315 -116.394478 346 20425ft 376kts
14-Sep-18 18:29 33.869895 -116.430474 340 22100ft 384kts
14-Sep-18 18:30 33.952647 -116.503919 291 23482ft 397kts
14-Sep-18 18:31 33.950135 -116.638996 267 24731ft 413kts
14-Sep-18 18:32 33.942679 -116.738941 267 25619ft 419kts
14-Sep-18 18:33 33.933833 -116.877983 277 26814ft 419kts
14-Sep-18 18:34 33.967249 -117.011416 290 27930ft 418kts
14-Sep-18 18:35 34.003529 -117.145314 290 28834ft 427kts
14-Sep-18 18:36 34.040407 -117.282100 290 29753ft 432kts
14-Sep-18 18:37 34.078090 -117.420883 290 30524ft 438kts
14-Sep-18 18:38 34.115691 -117.559442 290 31265ft 442kts
14-Sep-18 18:39 34.152725 -117.695874 290 31928ft 447kts
14-Sep-18 18:40 34.200245 -117.835472 314 31988ft 456kts
14-Sep-18 18:41 34.299694 -117.930190 326 31966ft 463kts
14-Sep-18 18:42 34.407324 -118.014923 329 31970ft 469kts
14-Sep-18 18:43 34.514183 -118.106288 321 32030ft 475kts
14-Sep-18 18:44 34.612483 -118.213447 319 32022ft 479kts
14-Sep-18 18:45 34.712254 -118.319212 320 31990ft 472kts
14-Sep-18 18:46 34.810240 -118.422247 320 31993ft 468kts
14-Sep-18 18:47 34.909436 -118.522820 323 32100ft 464kts
14-Sep-18 18:48 35.012163 -118.618346 323 32099ft 464kts
14-Sep-18 18:49 35.110583 -118.709322 322 32102ft 464kts
14-Sep-18 18:50 35.210209 -118.806547 316 32108ft 464kts
14-Sep-18 18:51 35.304389 -118.914031 317 31958ft 468kts
14-Sep-18 18:52 35.399905 -119.022551 317 31940ft 468kts
14-Sep-18 18:53 35.495306 -119.129755 321 31933ft 468kts
14-Sep-18 18:54 35.619460 -119.166976 353 31935ft 470kts
14-Sep-18 18:55 35.741292 -119.217837 335 31912ft 466kts
14-Sep-18 18:56 35.859485 -119.282540 335 31935ft 466kts
14-Sep-18 18:57 35.976647 -119.346456 335 31938ft 467kts
14-Sep-18 18:58 36.098015 -119.403851 338 31936ft 470kts
14-Sep-18 18:59 36.218032 -119.459451 338 31910ft 475kts
14-Sep-18 19:00 36.342119 -119.516778 338 31913ft 480kts
14-Sep-18 19:01 36.466844 -119.577155 336 31913ft 483kts
14-Sep-18 19:02 36.591140 -119.640907 336 31913ft 487kts
14-Sep-18 19:03 36.712704 -119.703298 336 31915ft 490kts
14-Sep-18 19:04 36.838461 -119.767881 336 31915ft 493kts
14-Sep-18 19:05 36.954960 -119.850205 306 31924ft 486kts
14-Sep-18 19:06 37.038371 -119.982070 314 31930ft 488kts
14-Sep-18 19:07 37.131387 -120.085514 319 31940ft 490kts
14-Sep-18 19:08 37.235018 -120.194012 318 31924ft 492kts
14-Sep-18 19:09 37.338004 -120.306065 318 31913ft 494kts
14-Sep-18 19:10 37.441337 -120.418567 318 31945ft 494kts
14-Sep-18 19:11 37.544913 -120.531354 318 31966ft 494kts
14-Sep-18 19:12 37.648517 -120.644209 318 31937ft 494kts
14-Sep-18 19:13 37.735729 -120.745254 315 31914ft 494kts
14-Sep-18 19:14 37.835038 -120.861395 315 31914ft 494kts
14-Sep-18 19:15 37.926749 -120.969673 315 31913ft 494kts
14-Sep-18 19:16 38.028748 -121.085176 317 31939ft 494kts
14-Sep-18 19:17 38.128383 -121.197652 317 31939ft 494kts
14-Sep-18 19:18 38.227241 -121.309229 317 31927ft 494kts
14-Sep-18 19:19 38.329817 -121.422463 319 31919ft 495kts
14-Sep-18 19:20 38.432616 -121.535954 315 31940ft 493kts
14-Sep-18 19:21 38.554064 -121.605967 347 31936ft 495kts
14-Sep-18 19:22 38.682995 -121.649995 343 31912ft 493kts
14-Sep-18 19:23 38.805224 -121.706235 338 31914ft 492kts
14-Sep-18 19:24 38.933390 -121.764034 340 31914ft 493kts
14-Sep-18 19:25 39.062759 -121.818931 340 31915ft 494kts
14-Sep-18 19:26 39.188367 -121.872125 340 31913ft 494kts
14-Sep-18 19:27 39.316832 -121.926448 340 31913ft 495kts
14-Sep-18 19:28 39.446315 -121.981189 340 31913ft 495kts
14-Sep-18 19:29 39.578231 -122.029754 343 31913ft 495kts
14-Sep-18 19:30 39.710738 -122.075724 343 31913ft 496kts
14-Sep-18 19:31 39.842703 -122.123356 340 31914ft 495kts
14-Sep-18 19:32 39.971797 -122.177383 340 31914ft 496kts
14-Sep-18 19:33 40.099374 -122.240995 337 31914ft 494kts
14-Sep-18 19:34 40.224139 -122.278326 349 31910ft 492kts
14-Sep-18 19:35 40.354292 -122.307447 348 31911ft 483kts
14-Sep-18 19:36 40.482429 -122.344763 346 31912ft 481kts
14-Sep-18 19:37 40.609076 -122.381978 346 31912ft 480kts
14-Sep-18 19:38 40.738266 -122.419866 346 31912ft 480kts
14-Sep-18 19:39 40.867124 -122.457594 346 31911ft 479kts
14-Sep-18 19:40 40.995992 -122.495263 346 31892ft 464kts
14-Sep-18 19:41 41.110780 -122.528551 346 30609ft 436kts
14-Sep-18 19:42 41.220296 -122.560694 346 28849ft 422kts
14-Sep-18 19:43 41.331904 -122.588678 348 27017ft 408kts
14-Sep-18 19:44 41.440959 -122.615322 347 25316ft 393kts
14-Sep-18 19:45 41.546155 -122.646234 346 23402ft 384kts
14-Sep-18 19:46 41.644947 -122.675555 345 21717ft 374kts
14-Sep-18 19:47 41.744703 -122.705608 346 20014ft 365kts
14-Sep-18 19:48 41.840950 -122.735095 345 17454ft 351kts
14-Sep-18 19:49 41.934554 -122.762116 345 14657ft 343kts
14-Sep-18 19:50 42.026646 -122.786607 346 11859ft 341kts
14-Sep-18 19:51 42.105957 -122.808690 346 10488ft 306kts
14-Sep-18 19:52 42.185460 -122.832135 346 8541ft 293kts
14-Sep-18 19:53 42.262946 -122.852769 348 6927ft 272kts
14-Sep-18 19:54 42.336315 -122.870228 346 6932ft 271kts
14-Sep-18 19:55 42.409912 -122.892529 344 6931ft 273kts
14-Sep-18 19:56 42.484462 -122.916596 346 6932ft 280kts
14-Sep-18 19:57 42.558657 -122.931811 352 6353ft 265kts
14-Sep-18 19:58 42.629967 -122.941833 349 5918ft 242kts
14-Sep-18 19:59 42.689504 -122.935338 33 5954ft 213kts
14-Sep-18 20:00 42.738351 -122.891570 33 5927ft 209kts
14-Sep-18 20:01 42.784659 -122.907319 278 5965ft 228kts
14-Sep-18 20:02 42.742829 -122.952366 170 5944ft 218kts
14-Sep-18 20:03 42.689035 -122.944714 175 5033ft 189kts
14-Sep-18 20:04 42.640836 -122.938890 173 4636ft 166kts
14-Sep-18 20:05 42.593301 -122.931401 173 4603ft 167kts
14-Sep-18 20:06 42.548942 -122.924406 173 4643ft 163kts
14-Sep-18 20:07 42.503044 -122.917695 168 4072ft 156kts
14-Sep-18 20:08 42.462577 -122.904160 167 3375ft 141kts
14-Sep-18 20:09 42.424287 -122.894803 170 2420ft 140kts
14-Sep-18 20:10 42.387430 -122.879798 158 1395ft 137kts
14-Sep-18 20:11 42.368757 -122.870942 250 1327ft 7kts
14-Sep-18 20:12 42.368719 -122.871243 273 1327ft 0kts
14-Sep-18 20:13 42.368719 -122.871243 273 1327ft 0kts
14-Sep-18 20:14 42.368719 -122.871243 273 1327ft 0kts
14-Sep-18 20:15 42.369017 -122.873393 247 1327ft 0kts
14-Sep-18 20:16 42.369017 -122.873393 247 1327ft 0kts
14-Sep-18 20:17 42.369017 -122.873393 247 1327ft 0kts
14-Sep-18 20:18 42.369017 -122.873393 247 1327ft 0kts
14-Sep-18 20:19 42.369017 -122.873393 247 1327ft 0kts
14-Sep-18 20:20 42.369017 -122.873393 247 1327ft 0kts
14-Sep-18 20:21 42.369017 -122.873393 247 1327ft 0kts

Navigation Log

Ident Type
Flight plan parsing failed, navigation log unavailable